Time;durP1;ratioP1;P1;durP2;ratioP2;P2;SDS_P1;SDS_P2;PMS_P1;PMS_P2;Temp;Humidity;BMP_temperature;BMP_pressure;BME280_temperature;BME280_humidity;BME280_pressure;Samples;Min_cycle;Max_cycle;Signal;HPM_P1;HPM_P2
2023/01/02 00:01:51;;;;;;;16.48;5.80;;;12.00;99.90;;;;;;4979991;28;20030;-81
2023/01/02 00:04:16;;;;;;;12.40;6.05;;;12.10;99.90;;;;;;4979973;28;20081;-81
2023/01/02 00:06:42;;;;;;;15.35;6.07;;;12.10;99.90;;;;;;4979839;28;20060;-81
2023/01/02 00:09:08;;;;;;;14.38;5.70;;;12.10;99.90;;;;;;4963873;28;20050;-82
2023/01/02 00:11:34;;;;;;;15.65;5.97;;;12.10;99.90;;;;;;4964002;28;20030;-80
2023/01/02 00:13:59;;;;;;;15.93;5.70;;;12.10;99.90;;;;;;4980014;28;20042;-82
2023/01/02 00:16:25;;;;;;;11.10;5.15;;;12.10;99.90;;;;;;4980474;28;20022;-81
2023/01/02 00:18:51;;;;;;;16.23;6.07;;;12.10;99.90;;;;;;4979769;28;20058;-81
2023/01/02 00:21:17;;;;;;;12.73;6.05;;;12.20;99.90;;;;;;4964272;28;20549;-81
2023/01/02 00:23:43;;;;;;;13.20;5.82;;;12.20;99.90;;;;;;4965765;28;20026;-81
2023/01/02 00:26:10;;;;;;;14.80;5.60;;;12.20;99.90;;;;;;5003851;28;20037;-82
2023/01/02 00:28:36;;;;;;;12.02;5.43;;;12.30;99.90;;;;;;5009532;28;20022;-83
2023/01/02 00:31:12;;;;;;;11.88;5.28;;;12.30;99.90;;;;;;5004111;28;20014;-81
2023/01/02 00:33:38;;;;;;;17.10;6.07;;;12.30;99.90;;;;;;5014249;28;20037;-82
2023/01/02 00:36:08;;;;;;;11.77;4.68;;;12.40;99.90;;;;;;5001252;28;20106;-81
2023/01/02 00:38:34;;;;;;;14.75;4.70;;;12.40;99.90;;;;;;4997411;28;20011;-82
2023/01/02 00:41:00;;;;;;;13.07;5.25;;;12.40;99.90;;;;;;5003496;28;20042;-82
2023/01/02 00:43:27;;;;;;;15.25;5.63;;;12.40;99.90;;;;;;5000561;28;20035;-82
2023/01/02 00:45:53;;;;;;;14.25;5.18;;;12.40;99.90;;;;;;4964004;28;20030;-82
2023/01/02 00:48:19;;;;;;;12.27;4.78;;;12.40;99.90;;;;;;4948033;28;20034;-82
2023/01/02 00:50:44;;;;;;;12.90;5.47;;;12.50;99.90;;;;;;4979124;28;20033;-82
2023/01/02 00:53:10;;;;;;;12.55;4.97;;;12.50;99.90;;;;;;4996730;28;20101;-82
2023/01/02 00:55:36;;;;;;;11.90;5.50;;;12.50;99.90;;;;;;4979376;28;20065;-82
2023/01/02 00:58:02;;;;;;;13.40;5.07;;;12.50;99.90;;;;;;4979623;28;20041;-82
2023/01/02 01:00:27;;;;;;;16.83;7.05;;;12.60;99.90;;;;;;4978860;28;20026;-83
2023/01/02 01:02:57;;;;;;;12.38;5.60;;;12.50;99.90;;;;;;4979302;28;20493;-82
2023/01/02 01:05:27;;;;;;;12.10;5.00;;;12.50;99.90;;;;;;4978818;28;20169;-82
2023/01/02 01:07:54;;;;;;;11.77;4.45;;;12.60;99.90;;;;;;4978420;28;20467;-82
2023/01/02 01:10:20;;;;;;;14.75;5.03;;;12.60;99.90;;;;;;4962951;28;20045;-82
2023/01/02 01:12:46;;;;;;;10.73;4.60;;;12.60;99.90;;;;;;4978509;28;20022;-82
2023/01/02 01:15:11;;;;;;;12.43;4.43;;;12.60;99.90;;;;;;4978294;28;20026;-82
2023/01/02 01:17:37;;;;;;;11.63;4.95;;;12.60;99.90;;;;;;4961923;28;20105;-82
2023/01/02 01:20:03;;;;;;;12.73;4.63;;;12.60;99.90;;;;;;4962423;28;20027;-81
2023/01/02 01:22:29;;;;;;;10.35;4.50;;;12.60;99.90;;;;;;4978171;28;20030;-82
2023/01/02 01:24:55;;;;;;;11.68;4.47;;;12.60;99.90;;;;;;4962693;28;20026;-82
2023/01/02 01:27:20;;;;;;;11.32;4.88;;;12.60;99.90;;;;;;4962285;28;20089;-82
2023/01/02 01:29:46;;;;;;;9.43;4.32;;;12.70;99.90;;;;;;4978201;28;20033;-82
2023/01/02 01:32:11;;;;;;;12.10;4.88;;;12.60;99.90;;;;;;4946433;28;20113;-82
2023/01/02 01:34:37;;;;;;;14.02;4.60;;;12.60;99.90;;;;;;4962031;28;20126;-82
2023/01/02 01:37:03;;;;;;;9.48;4.70;;;12.60;99.90;;;;;;4978158;28;20120;-82
2023/01/02 01:39:28;;;;;;;11.88;4.50;;;12.70;99.90;;;;;;4962035;28;20069;-85
2023/01/02 01:41:54;;;;;;;9.88;4.82;;;12.70;99.90;;;;;;4977815;28;20031;-82
2023/01/02 01:44:45;;;;;;;11.82;4.60;;;12.70;99.90;;;;;;4978072;28;20077;-82
2023/01/02 01:47:19;;;;;;;11.18;4.20;;;12.70;99.90;;;;;;4995433;28;20026;-82
2023/01/02 01:49:45;;;;;;;11.20;4.55;;;12.70;99.90;;;;;;4995171;28;20085;-82
2023/01/02 01:52:17;;;;;;;12.20;5.07;;;12.70;99.90;;;;;;4977859;28;20526;-82
2023/01/02 01:54:57;;;;;;;13.88;4.85;;;12.70;99.90;;;;;;4976553;28;20089;-82
2023/01/02 01:57:52;;;;;;;12.03;5.50;;;12.80;99.90;;;;;;4995173;28;20026;-83
2023/01/02 02:00:19;;;;;;;11.95;3.80;;;12.70;99.90;;;;;;4977641;28;20367;-82
2023/01/02 02:02:48;;;;;;;8.23;3.85;;;12.80;99.90;;;;;;4977189;28;20062;-82
2023/01/02 02:05:20;;;;;;;11.05;4.22;;;12.70;99.90;;;;;;4995037;28;20027;-82
2023/01/02 02:08:14;;;;;;;11.35;4.05;;;12.80;99.90;;;;;;4977402;28;20030;-82
2023/01/02 02:10:40;;;;;;;12.20;3.97;;;12.70;99.90;;;;;;4994571;28;20038;-83
2023/01/02 02:13:06;;;;;;;14.85;4.50;;;12.70;99.90;;;;;;4995178;28;20113;-82
2023/01/02 02:16:00;;;;;;;13.02;4.82;;;12.70;99.90;;;;;;4961542;28;20069;-82
2023/01/02 02:19:00;;;;;;;13.57;4.47;;;12.80;99.90;;;;;;4977099;28;20502;-82
2023/01/02 02:21:32;;;;;;;13.50;4.70;;;12.70;99.90;;;;;;4946307;28;20053;-82
2023/01/02 02:24:13;;;;;;;12.40;5.55;;;12.80;99.90;;;;;;4977123;28;20031;-82
2023/01/02 02:26:53;;;;;;;11.68;3.88;;;12.70;99.90;;;;;;4977051;28;20100;-82
2023/01/02 02:29:53;;;;;;;13.63;4.78;;;12.80;99.90;;;;;;4977042;28;20122;-81
2023/01/02 02:32:52;;;;;;;10.85;4.15;;;12.80;99.90;;;;;;4977171;28;20036;-81
2023/01/02 02:35:42;;;;;;;12.32;4.60;;;12.80;99.90;;;;;;4977121;28;20082;-82
2023/01/02 02:38:14;;;;;;;12.85;5.00;;;12.80;99.90;;;;;;4994479;28;20026;-82
2023/01/02 02:41:01;;;;;;;12.20;4.32;;;12.80;99.90;;;;;;4976667;28;20134;-82
2023/01/02 02:43:45;;;;;;;12.57;4.03;;;12.80;99.90;;;;;;4994564;28;20158;-82
2023/01/02 02:46:48;;;;;;;12.50;4.90;;;12.80;99.90;;;;;;4977186;28;20031;-81
2023/01/02 02:49:17;;;;;;;14.50;5.18;;;12.80;99.90;;;;;;4977035;28;20073;-81
2023/01/02 02:51:46;;;;;;;11.48;4.47;;;12.80;99.90;;;;;;4976631;28;20031;-82
2023/01/02 02:54:21;;;;;;;13.68;3.97;;;12.80;99.90;;;;;;4994302;28;20085;-81
2023/01/02 02:56:49;;;;;;;11.52;4.40;;;12.80;99.90;;;;;;4976690;28;20037;-82
2023/01/02 02:59:15;;;;;;;14.23;5.35;;;12.90;99.90;;;;;;4976778;28;20040;-81
2023/01/02 03:01:41;;;;;;;13.75;4.75;;;12.80;99.90;;;;;;4993785;28;20026;-82
2023/01/02 03:04:18;;;;;;;14.00;4.60;;;12.90;99.90;;;;;;4976946;28;20046;-82
2023/01/02 03:07:10;;;;;;;12.73;4.53;;;12.90;99.90;;;;;;4976485;28;20058;-82
2023/01/02 03:10:07;;;;;;;12.65;4.00;;;12.90;99.90;;;;;;4976932;28;20027;-82
2023/01/02 03:12:57;;;;;;;10.65;4.43;;;12.90;99.90;;;;;;4976284;28;20108;-81
2023/01/02 03:15:27;;;;;;;14.88;4.40;;;12.90;99.90;;;;;;4976906;28;20034;-82
2023/01/02 03:18:11;;;;;;;11.60;4.30;;;12.90;99.90;;;;;;4973240;28;20078;-81
2023/01/02 03:20:41;;;;;;;9.63;4.22;;;12.90;99.90;;;;;;4957470;28;20301;-82
2023/01/02 03:23:14;;;;;;;17.20;4.20;;;12.90;99.90;;;;;;4957331;28;20030;-82
2023/01/02 03:25:42;;;;;;;13.10;5.07;;;12.90;99.90;;;;;;4974816;28;20031;-81
2023/01/02 03:28:10;;;;;;;13.40;4.40;;;12.90;99.90;;;;;;4957549;28;20117;-82
2023/01/02 03:30:39;;;;;;;11.00;4.47;;;12.90;99.90;;;;;;4957386;28;20031;-82
2023/01/02 03:33:11;;;;;;;13.43;4.70;;;12.90;99.90;;;;;;4956577;28;20023;-82
2023/01/02 03:35:42;;;;;;;11.52;4.47;;;12.90;99.90;;;;;;4974952;28;20027;-82
2023/01/02 03:38:14;;;;;;;9.75;3.85;;;13.00;99.90;;;;;;4957320;28;20027;-82
2023/01/02 03:40:44;;;;;;;13.35;4.13;;;13.00;99.90;;;;;;4957361;28;20395;-83
2023/01/02 03:43:27;;;;;;;15.70;5.20;;;13.00;99.90;;;;;;4957295;28;20027;-81
2023/01/02 03:46:07;;;;;;;15.60;4.47;;;13.00;99.90;;;;;;4957297;28;20033;-82
2023/01/02 03:48:59;;;;;;;11.50;3.70;;;13.00;99.90;;;;;;4957285;28;20038;-82
2023/01/02 03:51:25;;;;;;;15.02;4.22;;;13.00;99.90;;;;;;4957266;28;20104;-82
2023/01/02 03:53:51;;;;;;;10.18;4.05;;;13.00;99.90;;;;;;4941179;28;20031;-81
2023/01/02 03:56:40;;;;;;;13.90;4.15;;;13.00;99.90;;;;;;4973236;28;20034;-82
2023/01/02 03:59:09;;;;;;;11.13;3.60;;;13.10;99.90;;;;;;4957270;28;20023;-82
2023/01/02 04:01:46;;;;;;;15.10;3.88;;;13.00;99.90;;;;;;4973413;28;20026;-82
2023/01/02 04:04:28;;;;;;;13.57;4.90;;;13.10;99.90;;;;;;4974980;28;20034;-82
2023/01/02 04:06:59;;;;;;;9.95;3.63;;;13.10;99.90;;;;;;4962158;28;20029;-81
2023/01/02 04:09:29;;;;;;;10.13;3.90;;;13.10;99.90;;;;;;4963218;28;20038;-81
2023/01/02 04:12:09;;;;;;;9.77;3.67;;;13.00;99.90;;;;;;4963147;28;20440;-81
2023/01/02 04:14:42;;;;;;;13.98;4.47;;;13.10;99.90;;;;;;4962268;28;20030;-81
2023/01/02 04:17:09;;;;;;;13.23;3.67;;;13.10;99.90;;;;;;4966887;28;20046;-82
2023/01/02 04:19:40;;;;;;;10.32;4.10;;;13.10;99.90;;;;;;4995323;28;20031;-81
2023/01/02 04:22:13;;;;;;;10.05;4.10;;;13.10;99.90;;;;;;5020964;28;20091;-83
2023/01/02 04:24:45;;;;;;;14.10;4.03;;;13.10;99.90;;;;;;4984796;28;20113;-82
2023/01/02 04:27:21;;;;;;;11.32;4.05;;;13.10;99.90;;;;;;4997641;28;20033;-82
2023/01/02 04:29:47;;;;;;;10.70;4.50;;;13.10;99.90;;;;;;4980423;28;20030;-82
2023/01/02 04:32:19;;;;;;;10.55;4.15;;;13.10;99.90;;;;;;4964044;28;20023;-81
2023/01/02 04:34:47;;;;;;;9.38;4.15;;;13.10;99.90;;;;;;4979952;28;20057;-81
2023/01/02 04:37:37;;;;;;;9.98;3.67;;;13.10;99.90;;;;;;4997052;28;20030;-81
2023/01/02 04:40:09;;;;;;;15.23;4.13;;;13.10;99.90;;;;;;4996372;28;20117;-82
2023/01/02 04:42:35;;;;;;;14.07;4.25;;;13.10;99.90;;;;;;4979799;28;20073;-81
2023/01/02 04:45:00;;;;;;;12.85;4.35;;;13.20;99.90;;;;;;4963213;28;20121;-82
2023/01/02 04:47:26;;;;;;;7.22;3.88;;;13.10;99.90;;;;;;4963224;28;20031;-81
2023/01/02 04:49:52;;;;;;;12.98;3.90;;;13.10;99.90;;;;;;4979650;28;20038;-81
2023/01/02 04:52:17;;;;;;;14.50;4.60;;;13.10;99.90;;;;;;4978778;28;20030;-81
2023/01/02 04:54:44;;;;;;;11.15;4.60;;;13.10;99.90;;;;;;4996560;28;20040;-81
2023/01/02 04:57:09;;;;;;;11.20;3.90;;;13.10;99.90;;;;;;4996035;28;20109;-82
2023/01/02 04:59:35;;;;;;;10.25;3.80;;;13.10;99.90;;;;;;4979089;28;20161;-81
2023/01/02 05:02:00;;;;;;;9.98;4.13;;;13.10;99.90;;;;;;4962988;28;20023;-82
2023/01/02 05:04:26;;;;;;;9.63;3.65;;;13.10;99.90;;;;;;4962887;28;20113;-81
2023/01/02 05:06:52;;;;;;;7.07;3.20;;;13.10;99.90;;;;;;4946679;28;20470;-81
2023/01/02 05:09:17;;;;;;;11.57;3.65;;;13.10;99.90;;;;;;4946183;28;20037;-82
2023/01/02 05:11:43;;;;;;;10.43;3.65;;;13.20;99.90;;;;;;4963029;28;20042;-82
2023/01/02 05:14:09;;;;;;;11.55;3.40;;;13.10;99.90;;;;;;4979098;28;20034;-82
2023/01/02 05:16:34;;;;;;;10.07;3.50;;;13.10;99.90;;;;;;4962745;28;20117;-82
2023/01/02 05:19:00;;;;;;;8.98;3.53;;;13.10;99.90;;;;;;4959095;28;20464;-82
2023/01/02 05:24:09;;;;;;;10.65;4.32;;;13.10;99.90;;;;;;4975430;28;20073;-81
2023/01/02 05:26:35;;;;;;;9.27;3.45;;;13.10;99.90;;;;;;4959133;28;20062;-82
2023/01/02 05:29:01;;;;;;;7.63;3.33;;;13.10;99.90;;;;;;4957930;28;20046;-82
2023/01/02 05:31:27;;;;;;;7.75;3.60;;;13.10;99.90;;;;;;4959202;28;20069;-82
2023/01/02 05:33:54;;;;;;;9.02;3.85;;;13.10;99.90;;;;;;4958897;28;20019;-81
2023/01/02 05:36:21;;;;;;;10.73;4.38;;;13.10;99.90;;;;;;4958639;28;20390;-82
2023/01/02 05:38:47;;;;;;;10.98;3.72;;;13.10;99.90;;;;;;4958914;28;20042;-81
2023/01/02 05:41:13;;;;;;;9.05;3.60;;;13.10;99.90;;;;;;4974524;28;20034;-82
2023/01/02 05:43:40;;;;;;;10.07;3.47;;;13.10;99.90;;;;;;4958727;28;20081;-82
2023/01/02 05:46:19;;;;;;;12.13;3.53;;;13.20;99.90;;;;;;4958452;28;20050;-83
2023/01/02 05:48:46;;;;;;;14.35;3.60;;;13.20;99.90;;;;;;4958906;28;20084;-82
2023/01/02 05:51:13;;;;;;;10.63;3.70;;;13.10;99.90;;;;;;4974772;28;20027;-82
2023/01/02 05:53:39;;;;;;;10.90;3.85;;;13.10;99.90;;;;;;4958928;28;20106;-83
2023/01/02 05:56:10;;;;;;;10.68;3.53;;;13.20;99.90;;;;;;4958681;28;20069;-82
2023/01/02 05:58:37;;;;;;;;;;;13.20;99.90;;;;;;4958875;28;20031;-82
2023/01/02 06:01:04;;;;;;;11.23;3.33;;;13.20;99.90;;;;;;4958279;28;19906;-84
2023/01/02 06:03:29;;;;;;;12.25;4.13;;;13.20;99.90;;;;;;4974133;28;20483;-83
2023/01/02 06:05:55;;;;;;;9.95;3.42;;;13.20;99.90;;;;;;4958350;28;20118;-82
2023/01/02 06:08:20;;;;;;;7.57;3.35;;;13.20;99.90;;;;;;4974713;28;20035;-82
2023/01/02 06:10:50;;;;;;;9.30;3.50;;;13.20;99.90;;;;;;4958485;28;20031;-83
2023/01/02 06:13:16;;;;;;;7.85;3.40;;;13.20;99.90;;;;;;4958073;28;20050;-82
2023/01/02 06:15:41;;;;;;;8.15;3.13;;;13.20;99.90;;;;;;4958114;28;20062;-83
2023/01/02 06:18:07;;;;;;;11.55;3.80;;;13.20;99.90;;;;;;4973812;28;20050;-83
2023/01/02 06:20:32;;;;;;;9.25;2.53;;;13.30;99.90;;;;;;4957717;28;20033;-82
2023/01/02 06:22:58;;;;;;;9.82;3.17;;;13.30;99.90;;;;;;4958004;28;20038;-82
2023/01/02 06:25:24;;;;;;;8.73;3.03;;;13.30;99.90;;;;;;4957699;28;20768;-82
2023/01/02 06:27:49;;;;;;;9.20;3.55;;;13.20;99.90;;;;;;4957746;28;20039;-82
2023/01/02 06:30:15;;;;;;;8.98;3.28;;;13.30;99.90;;;;;;4973877;28;20081;-82
2023/01/02 06:32:41;;;;;;;9.50;3.40;;;13.30;99.90;;;;;;4958231;28;20030;-82
2023/01/02 06:35:07;;;;;;;12.68;3.08;;;13.30;99.90;;;;;;4957609;28;20035;-84
2023/01/02 06:37:32;;;;;;;10.35;3.15;;;13.20;99.90;;;;;;4957781;28;20037;-82
2023/01/02 06:39:58;;;;;;;9.77;4.13;;;13.20;99.90;;;;;;4957477;28;20031;-81
2023/01/02 06:42:23;;;;;;;12.07;3.50;;;13.20;99.90;;;;;;4973751;28;20027;-81
2023/01/02 06:44:49;;;;;;;6.25;3.10;;;13.30;99.90;;;;;;4973726;28;20038;-81
2023/01/02 06:47:15;;;;;;;8.07;3.75;;;13.30;99.90;;;;;;4957468;28;20034;-83
2023/01/02 06:49:40;;;;;;;9.55;3.70;;;13.30;99.90;;;;;;4957695;28;20026;-82
2023/01/02 06:52:06;;;;;;;4.78;1.73;;;13.30;99.90;;;;;;4973775;28;20471;-81
2023/01/02 06:54:32;;;;;;;2.22;0.90;;;13.30;99.90;;;;;;4957565;28;20027;-81
2023/01/02 06:56:58;;;;;;;1.30;0.90;;;13.20;99.90;;;;;;4957647;28;20030;-82
2023/01/02 06:59:23;;;;;;;0.60;0.60;;;13.10;99.90;;;;;;4957299;28;20022;-82
2023/01/02 07:01:49;;;;;;;2.38;0.73;;;13.00;99.90;;;;;;4957500;28;20467;-82
2023/01/02 07:04:15;;;;;;;1.77;0.70;;;13.00;99.90;;;;;;4973447;28;20031;-82
2023/01/02 07:06:41;;;;;;;0.63;0.40;;;12.90;99.90;;;;;;4957346;28;20031;-81
2023/01/02 07:09:07;;;;;;;0.85;0.60;;;12.80;99.90;;;;;;4957436;28;20219;-82
2023/01/02 07:11:34;;;;;;;0.55;0.40;;;12.80;99.90;;;;;;4973167;28;20027;-82
2023/01/02 07:14:00;;;;;;;1.42;0.70;;;12.70;99.90;;;;;;4974845;28;20156;-82
2023/01/02 07:16:26;;;;;;;0.73;0.50;;;12.60;99.90;;;;;;4957125;28;20034;-82
2023/01/02 07:18:53;;;;;;;1.40;0.40;;;12.50;99.90;;;;;;4957037;28;20050;-82
2023/01/02 07:21:19;;;;;;;1.08;0.70;;;12.50;99.90;;;;;;4957168;28;20022;-82
2023/01/02 07:23:45;;;;;;;1.58;1.13;;;12.40;99.90;;;;;;4974945;28;20031;-82
2023/01/02 07:26:12;;;;;;;1.52;1.40;;;12.30;99.90;;;;;;4974540;28;20023;-82
2023/01/02 07:28:38;;;;;;;3.33;1.60;;;12.30;99.90;;;;;;4974631;28;20076;-82
2023/01/02 07:31:11;;;;;;;1.77;1.65;;;12.30;99.90;;;;;;4973684;28;20114;-82
2023/01/02 07:33:37;;;;;;;2.08;1.70;;;12.20;99.90;;;;;;4974723;28;20031;-82
2023/01/02 07:36:06;;;;;;;3.30;2.10;;;12.20;99.90;;;;;;4973364;28;20111;-81
2023/01/02 07:38:33;;;;;;;3.72;2.35;;;12.20;99.90;;;;;;4957762;28;20027;-82
2023/01/02 07:40:59;;;;;;;2.72;2.00;;;12.20;99.90;;;;;;4957461;28;20093;-81
2023/01/02 07:43:25;;;;;;;2.40;1.77;;;12.20;99.90;;;;;;4957445;28;20388;-82
2023/01/02 07:45:51;;;;;;;2.78;2.10;;;12.20;99.90;;;;;;4958859;28;20486;-82
2023/01/02 07:48:17;;;;;;;4.72;3.22;;;12.20;99.90;;;;;;4977749;28;20117;-83
2023/01/02 07:50:43;;;;;;;4.18;3.05;;;12.10;99.90;;;;;;4965946;28;20018;-82
2023/01/02 07:53:08;;;;;;;4.38;3.42;;;12.00;99.90;;;;;;4993982;28;20027;-82
2023/01/02 07:55:34;;;;;;;4.40;3.53;;;12.00;99.90;;;;;;4981166;28;20035;-83
2023/01/02 07:58:00;;;;;;;4.75;3.58;;;12.00;99.90;;;;;;4970015;28;20035;-82
2023/01/02 08:00:25;;;;;;;6.20;3.75;;;12.00;99.90;;;;;;4970645;28;20027;-85
2023/01/02 08:02:53;;;;;;;7.43;4.10;;;12.00;99.90;;;;;;4996395;28;20027;-84
2023/01/02 08:05:20;;;;;;;7.82;5.13;;;11.90;99.90;;;;;;4986643;28;20466;-86
2023/01/02 08:07:45;;;;;;;4.97;3.97;;;11.90;99.90;;;;;;4978019;28;20031;-85
2023/01/02 08:10:12;;;;;;;6.00;4.32;;;11.90;99.90;;;;;;4978453;28;20030;-85
2023/01/02 08:12:38;;;;;;;5.82;4.43;;;11.80;99.90;;;;;;4978708;28;20035;-83
2023/01/02 08:15:04;;;;;;;9.20;6.88;;;11.80;99.90;;;;;;4977103;28;20035;-81
2023/01/02 08:17:31;;;;;;;10.70;8.10;;;11.80;99.90;;;;;;4980922;28;20054;-84
2023/01/02 08:19:57;;;;;;;10.52;8.55;;;11.80;99.90;;;;;;4978281;28;20026;-83
2023/01/02 08:22:23;;;;;;;11.18;9.30;;;11.70;99.90;;;;;;4995926;28;20101;-82
2023/01/02 08:24:49;;;;;;;11.95;9.52;;;11.70;99.90;;;;;;4960165;28;20065;-83
2023/01/02 08:27:15;;;;;;;11.55;9.32;;;11.70;99.90;;;;;;4978366;28;20150;-82
2023/01/02 08:29:41;;;;;;;11.95;9.88;;;11.70;99.90;;;;;;4959106;28;20498;-82
2023/01/02 08:32:06;;;;;;;12.95;10.48;;;11.70;99.90;;;;;;4962311;28;20035;-85
2023/01/02 08:34:33;;;;;;;11.75;10.38;;;11.70;99.90;;;;;;4956334;28;20038;-83
2023/01/02 08:36:59;;;;;;;14.45;10.40;;;11.60;99.90;;;;;;4962764;28;20058;-83
2023/01/02 08:39:25;;;;;;;13.05;11.27;;;11.60;99.90;;;;;;4961043;28;20058;-83
2023/01/02 08:41:51;;;;;;;13.10;11.23;;;11.70;99.90;;;;;;4964642;28;20675;-84
2023/01/02 08:44:16;;;;;;;12.27;10.63;;;11.70;99.90;;;;;;4975669;28;20023;-84
2023/01/02 08:46:42;;;;;;;12.00;10.40;;;11.60;99.90;;;;;;4959953;28;20041;-85
2023/01/02 08:49:07;;;;;;;10.50;9.40;;;11.60;99.90;;;;;;4993881;28;20031;-84
2023/01/02 08:51:33;;;;;;;10.18;8.23;;;11.60;99.90;;;;;;4960740;28;20026;-84
2023/01/02 08:53:59;;;;;;;10.15;8.25;;;11.50;99.90;;;;;;4977854;28;20033;-84
2023/01/02 08:56:30;;;;;;;9.30;7.43;;;11.50;99.90;;;;;;4958639;28;20034;-85
2023/01/02 08:58:57;;;;;;;;;;;11.50;99.90;;;;;;4978366;28;20030;-84
2023/01/02 09:01:24;;;;;;;7.57;6.20;;;11.50;99.90;;;;;;4977892;28;19910;-84
2023/01/02 09:03:51;;;;;;;6.97;5.53;;;11.40;99.90;;;;;;4977272;28;20398;-85
2023/01/02 09:06:17;;;;;;;7.20;5.68;;;11.40;99.90;;;;;;4976193;28;20372;-84
2023/01/02 09:08:43;;;;;;;7.63;5.80;;;11.40;99.90;;;;;;4964641;28;20038;-86
2023/01/02 09:11:18;;;;;;;7.25;5.72;;;11.40;99.90;;;;;;4960302;28;20554;-85
2023/01/02 09:13:44;;;;;;;7.60;6.00;;;11.40;99.90;;;;;;4995328;28;20105;-84
2023/01/02 09:16:10;;;;;;;7.47;6.15;;;11.40;99.90;;;;;;4976017;28;20531;-84
2023/01/02 09:18:40;;;;;;;8.75;6.30;;;11.30;99.90;;;;;;4981103;28;20458;-85
2023/01/02 09:21:06;;;;;;;8.20;6.82;;;11.40;99.90;;;;;;4944040;28;20125;-85
2023/01/02 09:23:34;;;;;;;7.65;6.28;;;11.40;99.90;;;;;;4977937;28;20080;-84
2023/01/02 09:26:03;;;;;;;8.80;6.35;;;11.40;99.90;;;;;;4958776;28;20050;-85
2023/01/02 09:28:30;;;;;;;8.38;5.97;;;11.40;99.90;;;;;;4977320;28;20038;-84
2023/01/02 09:30:55;;;;;;;7.00;5.50;;;11.40;99.90;;;;;;4959148;28;20038;-86
2023/01/02 09:33:21;;;;;;;7.55;4.50;;;11.30;99.90;;;;;;4961340;28;20074;-85
2023/01/02 09:35:48;;;;;;;6.57;4.20;;;11.40;99.90;;;;;;4974733;28;20030;-85
2023/01/02 09:38:13;;;;;;;6.35;3.78;;;11.30;99.90;;;;;;4960521;28;20100;-85
2023/01/02 09:40:47;;;;;;;4.93;3.47;;;11.30;99.90;;;;;;4960919;28;20060;-85
2023/01/02 09:43:15;;;;;;;6.32;3.40;;;11.20;99.90;;;;;;4980290;28;20031;-85
2023/01/02 09:45:53;;;;;;;6.45;3.13;;;11.20;99.90;;;;;;4975354;28;20045;-84
2023/01/02 09:48:20;;;;;;;6.82;2.78;;;11.20;99.90;;;;;;4991670;28;20065;-85
2023/01/02 09:50:47;;;;;;;6.55;2.80;;;11.20;99.90;;;;;;4976866;28;20034;-85
2023/01/02 09:53:14;;;;;;;5.95;2.60;;;11.10;99.90;;;;;;4977188;28;20022;-84
2023/01/02 09:55:55;;;;;;;5.50;2.72;;;11.10;99.90;;;;;;4958291;28;20048;-84
2023/01/02 09:58:31;;;;;;;6.55;2.35;;;11.10;99.90;;;;;;4983265;28;20053;-86
2023/01/02 10:01:04;;;;;;;6.47;2.13;;;11.10;99.90;;;;;;4981295;28;20110;-84
2023/01/02 10:03:50;;;;;;;5.05;1.95;;;11.10;99.90;;;;;;4978231;28;20030;-84
2023/01/02 10:06:42;;;;;;;4.25;1.83;;;11.10;99.90;;;;;;4990918;28;20030;-84
2023/01/02 10:09:31;;;;;;;8.00;2.25;;;11.10;99.90;;;;;;4978339;28;20050;-85
2023/01/02 10:12:21;;;;;;;6.65;2.83;;;11.10;99.90;;;;;;4977671;28;20050;-86
2023/01/02 10:14:58;;;;;;;6.53;2.40;;;11.10;99.90;;;;;;4994594;28;20447;-84
2023/01/02 10:17:26;;;;;;;5.32;1.90;;;11.10;99.90;;;;;;4978059;28;20072;-84
2023/01/02 10:20:01;;;;;;;4.82;2.10;;;11.10;99.90;;;;;;5000866;28;20066;-85
2023/01/02 10:22:45;;;;;;;6.43;3.08;;;11.10;99.90;;;;;;5007879;28;20022;-85
2023/01/02 10:25:30;;;;;;;8.00;2.45;;;11.10;99.90;;;;;;4984955;28;20370;-86
2023/01/02 10:28:19;;;;;;;5.10;2.20;;;11.10;99.90;;;;;;4965448;28;20129;-84
2023/01/02 10:31:10;;;;;;;6.03;2.35;;;11.10;99.90;;;;;;4983183;28;20038;-83
2023/01/02 10:33:49;;;;;;;5.63;2.70;;;11.10;99.90;;;;;;4990846;28;20112;-84
2023/01/02 10:36:26;;;;;;;7.32;2.83;;;11.10;99.90;;;;;;4978642;28;20023;-84
2023/01/02 10:38:57;;;;;;;6.30;2.83;;;11.10;99.90;;;;;;4980747;28;20024;-84
2023/01/02 10:41:27;;;;;;;8.25;2.78;;;11.10;99.90;;;;;;4992284;28;20097;-83
2023/01/02 10:44:19;;;;;;;5.93;2.85;;;11.10;99.90;;;;;;4998255;28;20030;-84
2023/01/02 10:46:48;;;;;;;5.15;3.15;;;11.10;99.90;;;;;;4975226;28;20170;-85
2023/01/02 10:49:17;;;;;;;6.90;3.38;;;11.10;99.90;;;;;;4974331;28;20062;-84
2023/01/02 10:51:55;;;;;;;7.15;2.83;;;11.20;99.90;;;;;;4980438;28;20037;-83
2023/01/02 10:54:21;;;;;;;7.57;2.80;;;11.10;99.90;;;;;;4984273;28;20022;-83
2023/01/02 10:56:49;;;;;;;8.23;3.65;;;11.10;99.90;;;;;;4968832;28;20508;-83
2023/01/02 10:59:22;;;;;;;7.68;2.80;;;11.20;99.90;;;;;;4983817;28;20050;-83
2023/01/02 11:01:56;;;;;;;6.72;2.80;;;11.10;99.90;;;;;;4985346;28;20082;-83
2023/01/02 11:04:30;;;;;;;6.22;2.75;;;11.10;99.90;;;;;;4973169;28;20403;-83
2023/01/02 11:06:59;;;;;;;6.20;2.67;;;11.10;99.90;;;;;;4984428;28;20314;-85
2023/01/02 11:09:28;;;;;;;6.60;2.22;;;11.10;99.90;;;;;;4992564;28;20014;-82
2023/01/02 11:12:07;;;;;;;5.90;2.80;;;11.10;99.90;;;;;;5017897;28;20037;-83
2023/01/02 11:14:35;;;;;;;7.88;2.55;;;11.00;99.90;;;;;;4984216;28;20491;-84
2023/01/02 11:17:14;;;;;;;5.20;1.90;;;11.00;99.90;;;;;;4979856;28;20423;-83
2023/01/02 11:19:42;;;;;;;6.90;2.00;;;11.00;99.90;;;;;;4999510;28;20053;-83
2023/01/02 11:22:10;;;;;;;6.97;1.90;;;10.90;99.90;;;;;;4972814;28;20026;-83
2023/01/02 11:24:48;;;;;;;4.93;1.80;;;10.90;99.90;;;;;;4980590;28;20066;-83
2023/01/02 11:27:14;;;;;;;3.25;1.48;;;10.90;99.90;;;;;;4990720;28;20412;-82
2023/01/02 11:29:46;;;;;;;7.25;2.03;;;10.90;99.90;;;;;;4973716;28;20054;-84
2023/01/02 11:32:30;;;;;;;8.60;2.45;;;10.90;99.90;;;;;;5013545;28;20017;-87
2023/01/02 11:35:01;;;;;;;7.68;1.92;;;10.90;99.90;;;;;;5005270;28;20054;-83
2023/01/02 11:37:27;;;;;;;5.65;2.10;;;10.90;99.90;;;;;;5015101;28;20085;-88
2023/01/02 11:40:08;;;;;;;5.78;2.35;;;11.00;99.90;;;;;;5014501;28;20018;-85
2023/01/02 11:45:36;;;;;;;6.10;2.80;;;10.90;99.90;;;;;;5024424;28;20040;-84
2023/01/02 11:48:22;;;;;;;6.82;2.75;;;10.90;99.90;;;;;;5005563;28;20026;-82
2023/01/02 11:50:51;;;;;;;8.25;3.60;;;11.00;99.90;;;;;;5002119;28;20108;-83
2023/01/02 11:53:32;;;;;;;7.68;3.53;;;11.00;99.90;;;;;;5001238;28;20029;-83
2023/01/02 11:56:06;;;;;;;;;;;11.00;99.90;;;;;;4986005;28;20539;-84
2023/01/02 11:58:58;;;;;;;8.38;3.45;;;11.00;99.90;;;;;;4979092;28;20004;-84
2023/01/02 12:01:48;;;;;;;8.13;3.30;;;11.00;99.90;;;;;;4978941;28;20027;-84
2023/01/02 12:04:14;;;;;;;7.53;3.83;;;11.00;99.90;;;;;;4979803;28;20401;-84
2023/01/02 12:07:18;;;;;;;8.40;3.22;;;11.00;99.90;;;;;;4980760;28;20114;-84
2023/01/02 12:10:05;;;;;;;8.15;3.28;;;11.00;99.90;;;;;;4986361;28;20030;-83
2023/01/02 12:12:47;;;;;;;10.75;3.85;;;11.00;99.90;;;;;;4983943;28;20022;-84
2023/01/02 12:16:19;;;;;;;7.78;2.92;;;11.00;99.90;;;;;;4980529;28;20094;-83
2023/01/02 12:19:08;;;;;;;9.93;3.60;;;10.90;99.90;;;;;;5000475;28;20048;-84
2023/01/02 12:22:03;;;;;;;8.85;3.50;;;11.00;99.90;;;;;;4999792;28;20048;-84
2023/01/02 12:24:50;;;;;;;9.73;3.35;;;11.00;99.90;;;;;;5001476;28;20038;-83
2023/01/02 12:27:26;;;;;;;7.60;3.95;;;11.00;99.90;;;;;;4999624;28;20072;-83
2023/01/02 12:30:24;;;;;;;7.50;3.65;;;11.00;99.90;;;;;;4999006;28;20061;-83
2023/01/02 12:33:21;;;;;;;8.25;3.28;;;10.90;99.90;;;;;;4977613;28;20089;-84
2023/01/02 12:36:13;;;;;;;8.07;3.83;;;11.00;99.90;;;;;;4999609;28;20026;-83
2023/01/02 12:39:03;;;;;;;10.38;3.80;;;10.90;99.90;;;;;;5000201;28;20065;-83
2023/01/02 12:42:01;;;;;;;10.10;3.50;;;10.90;99.90;;;;;;4999306;28;20176;-83
2023/01/02 12:44:45;;;;;;;8.90;3.28;;;11.00;99.90;;;;;;4999145;28;20026;-84
2023/01/02 12:47:48;;;;;;;9.40;3.15;;;11.00;99.90;;;;;;4998857;28;20060;-89
2023/01/02 12:50:32;;;;;;;6.57;2.63;;;11.00;99.90;;;;;;5016738;28;20030;-82
2023/01/02 12:53:32;;;;;;;13.32;3.67;;;11.00;99.90;;;;;;4998896;28;20022;-83
2023/01/02 12:56:24;;;;;;;7.28;2.78;;;11.00;99.90;;;;;;5001199;28;20041;-83
2023/01/02 12:58:59;;;;;;;12.82;4.22;;;11.00;99.90;;;;;;5003276;28;20029;-83
2023/01/02 13:01:31;;;;;;;9.93;3.70;;;11.00;99.90;;;;;;5003103;28;20022;-83
2023/01/02 13:04:11;;;;;;;10.35;4.28;;;11.00;99.90;;;;;;5005313;28;20032;-83
2023/01/02 13:06:57;;;;;;;10.20;3.90;;;11.00;99.90;;;;;;5000306;28;20033;-83
2023/01/02 13:09:38;;;;;;;10.68;4.57;;;11.00;99.90;;;;;;5016407;28;20068;-82
2023/01/02 13:12:04;;;;;;;14.50;6.32;;;11.00;99.90;;;;;;4998407;28;20026;-83
2023/01/02 13:14:38;;;;;;;9.82;5.38;;;11.00;99.90;;;;;;4999325;28;20026;-83